sensor_id;sensor_type;location;lat;lon;timestamp;P1;durP1;ratioP1;P2;durP2;ratioP2
63930;SDS011;50111;48.114;-2.066;2022-07-22T00:02:24;9.43;;;5.20;;
63930;SDS011;50111;48.114;-2.066;2022-07-22T00:04:50;9.13;;;3.92;;
63930;SDS011;50111;48.114;-2.066;2022-07-22T00:07:16;6.55;;;4.40;;
63930;SDS011;50111;48.114;-2.066;2022-07-22T00:09:42;7.53;;;4.82;;
63930;SDS011;50111;48.114;-2.066;2022-07-22T00:12:08;11.13;;;5.50;;
63930;SDS011;50111;48.114;-2.066;2022-07-22T00:14:35;9.35;;;4.80;;
63930;SDS011;50111;48.114;-2.066;2022-07-22T00:17:01;9.50;;;5.53;;
63930;SDS011;50111;48.114;-2.066;2022-07-22T00:19:27;6.35;;;4.18;;
63930;SDS011;50111;48.114;-2.066;2022-07-22T00:21:53;9.10;;;4.85;;
63930;SDS011;50111;48.114;-2.066;2022-07-22T00:24:19;8.23;;;5.05;;
63930;SDS011;50111;48.114;-2.066;2022-07-22T00:26:45;10.27;;;5.18;;
63930;SDS011;50111;48.114;-2.066;2022-07-22T00:29:11;10.23;;;5.13;;
63930;SDS011;50111;48.114;-2.066;2022-07-22T00:31:37;9.90;;;5.22;;
63930;SDS011;50111;48.114;-2.066;2022-07-22T00:34:03;8.52;;;5.57;;
63930;SDS011;50111;48.114;-2.066;2022-07-22T00:36:29;13.20;;;5.82;;
63930;SDS011;50111;48.114;-2.066;2022-07-22T00:38:56;7.07;;;5.60;;
63930;SDS011;50111;48.114;-2.066;2022-07-22T00:41:22;10.45;;;6.07;;
63930;SDS011;50111;48.114;-2.066;2022-07-22T00:43:52;9.30;;;5.40;;
63930;SDS011;50111;48.114;-2.066;2022-07-22T00:46:18;9.48;;;6.18;;
63930;SDS011;50111;48.114;-2.066;2022-07-22T00:48:44;11.88;;;5.85;;
63930;SDS011;50111;48.114;-2.066;2022-07-22T00:51:11;9.60;;;5.55;;
63930;SDS011;50111;48.114;-2.066;2022-07-22T00:53:37;11.15;;;6.40;;
63930;SDS011;50111;48.114;-2.066;2022-07-22T00:56:03;10.50;;;5.50;;
63930;SDS011;50111;48.114;-2.066;2022-07-22T00:58:29;8.95;;;6.05;;
63930;SDS011;50111;48.114;-2.066;2022-07-22T01:00:55;14.45;;;6.40;;
63930;SDS011;50111;48.114;-2.066;2022-07-22T01:03:21;10.15;;;5.30;;
63930;SDS011;50111;48.114;-2.066;2022-07-22T01:05:47;10.60;;;5.50;;
63930;SDS011;50111;48.114;-2.066;2022-07-22T01:08:13;10.43;;;5.88;;
63930;SDS011;50111;48.114;-2.066;2022-07-22T01:10:39;10.52;;;6.03;;
63930;SDS011;50111;48.114;-2.066;2022-07-22T01:13:05;9.40;;;5.78;;
63930;SDS011;50111;48.114;-2.066;2022-07-22T01:15:32;10.00;;;5.85;;
63930;SDS011;50111;48.114;-2.066;2022-07-22T01:17:59;11.18;;;6.32;;
63930;SDS011;50111;48.114;-2.066;2022-07-22T01:20:25;12.82;;;5.97;;
63930;SDS011;50111;48.114;-2.066;2022-07-22T01:22:51;8.45;;;5.60;;
63930;SDS011;50111;48.114;-2.066;2022-07-22T01:25:17;8.60;;;6.15;;
63930;SDS011;50111;48.114;-2.066;2022-07-22T01:27:43;13.23;;;5.45;;
63930;SDS011;50111;48.114;-2.066;2022-07-22T01:30:10;9.38;;;6.50;;
63930;SDS011;50111;48.114;-2.066;2022-07-22T01:32:36;8.93;;;5.53;;
63930;SDS011;50111;48.114;-2.066;2022-07-22T01:35:02;9.20;;;5.90;;
63930;SDS011;50111;48.114;-2.066;2022-07-22T01:37:29;8.50;;;5.25;;
63930;SDS011;50111;48.114;-2.066;2022-07-22T01:39:55;9.43;;;5.20;;
63930;SDS011;50111;48.114;-2.066;2022-07-22T01:42:21;7.53;;;5.53;;
63930;SDS011;50111;48.114;-2.066;2022-07-22T01:44:47;9.10;;;5.15;;
63930;SDS011;50111;48.114;-2.066;2022-07-22T01:47:13;8.80;;;5.30;;
63930;SDS011;50111;48.114;-2.066;2022-07-22T01:49:39;10.05;;;5.60;;
63930;SDS011;50111;48.114;-2.066;2022-07-22T01:52:05;9.88;;;6.07;;
63930;SDS011;50111;48.114;-2.066;2022-07-22T01:54:31;13.38;;;6.28;;
63930;SDS011;50111;48.114;-2.066;2022-07-22T01:56:57;9.35;;;5.57;;
63930;SDS011;50111;48.114;-2.066;2022-07-22T01:59:23;14.48;;;6.43;;
63930;SDS011;50111;48.114;-2.066;2022-07-22T02:01:49;11.48;;;6.30;;
63930;SDS011;50111;48.114;-2.066;2022-07-22T02:04:15;9.25;;;5.70;;
63930;SDS011;50111;48.114;-2.066;2022-07-22T02:06:43;10.65;;;6.00;;
63930;SDS011;50111;48.114;-2.066;2022-07-22T02:09:09;12.18;;;6.13;;
63930;SDS011;50111;48.114;-2.066;2022-07-22T02:11:35;9.15;;;5.95;;
63930;SDS011;50111;48.114;-2.066;2022-07-22T02:14:01;10.98;;;7.00;;
63930;SDS011;50111;48.114;-2.066;2022-07-22T02:16:27;11.07;;;6.20;;
63930;SDS011;50111;48.114;-2.066;2022-07-22T02:18:54;10.35;;;6.20;;
63930;SDS011;50111;48.114;-2.066;2022-07-22T02:21:20;10.90;;;6.53;;
63930;SDS011;50111;48.114;-2.066;2022-07-22T02:23:46;13.57;;;7.55;;
63930;SDS011;50111;48.114;-2.066;2022-07-22T02:26:12;12.18;;;7.30;;
63930;SDS011;50111;48.114;-2.066;2022-07-22T02:28:38;10.27;;;6.07;;
63930;SDS011;50111;48.114;-2.066;2022-07-22T02:31:04;14.50;;;7.13;;
63930;SDS011;50111;48.114;-2.066;2022-07-22T02:33:30;12.10;;;7.60;;
63930;SDS011;50111;48.114;-2.066;2022-07-22T02:35:56;12.30;;;7.00;;
63930;SDS011;50111;48.114;-2.066;2022-07-22T02:38:22;11.52;;;7.55;;
63930;SDS011;50111;48.114;-2.066;2022-07-22T02:40:48;12.27;;;8.40;;
63930;SDS011;50111;48.114;-2.066;2022-07-22T02:43:14;14.27;;;8.15;;
63930;SDS011;50111;48.114;-2.066;2022-07-22T02:45:40;13.85;;;8.18;;
63930;SDS011;50111;48.114;-2.066;2022-07-22T02:48:06;13.60;;;7.45;;
63930;SDS011;50111;48.114;-2.066;2022-07-22T02:50:32;11.85;;;7.22;;
63930;SDS011;50111;48.114;-2.066;2022-07-22T02:52:58;12.75;;;7.10;;
63930;SDS011;50111;48.114;-2.066;2022-07-22T02:55:24;11.50;;;7.43;;
63930;SDS011;50111;48.114;-2.066;2022-07-22T02:57:50;13.15;;;8.23;;
63930;SDS011;50111;48.114;-2.066;2022-07-22T03:00:17;13.23;;;8.55;;
63930;SDS011;50111;48.114;-2.066;2022-07-22T03:02:43;14.40;;;7.97;;
63930;SDS011;50111;48.114;-2.066;2022-07-22T03:05:10;12.38;;;7.72;;
63930;SDS011;50111;48.114;-2.066;2022-07-22T03:07:36;10.65;;;7.90;;
63930;SDS011;50111;48.114;-2.066;2022-07-22T03:10:02;12.00;;;7.32;;
63930;SDS011;50111;48.114;-2.066;2022-07-22T03:12:29;10.00;;;7.22;;
63930;SDS011;50111;48.114;-2.066;2022-07-22T03:14:54;11.50;;;7.32;;
63930;SDS011;50111;48.114;-2.066;2022-07-22T03:17:21;12.30;;;8.15;;
63930;SDS011;50111;48.114;-2.066;2022-07-22T03:19:47;9.93;;;7.05;;
63930;SDS011;50111;48.114;-2.066;2022-07-22T03:22:13;13.85;;;7.45;;
63930;SDS011;50111;48.114;-2.066;2022-07-22T03:24:39;12.48;;;7.35;;
63930;SDS011;50111;48.114;-2.066;2022-07-22T03:27:05;14.10;;;7.90;;
63930;SDS011;50111;48.114;-2.066;2022-07-22T03:29:31;11.25;;;7.60;;
63930;SDS011;50111;48.114;-2.066;2022-07-22T03:31:57;12.15;;;8.35;;
63930;SDS011;50111;48.114;-2.066;2022-07-22T03:34:23;16.27;;;8.52;;
63930;SDS011;50111;48.114;-2.066;2022-07-22T03:36:49;13.68;;;8.02;;
63930;SDS011;50111;48.114;-2.066;2022-07-22T03:39:15;14.00;;;8.32;;
63930;SDS011;50111;48.114;-2.066;2022-07-22T03:41:41;12.15;;;7.40;;
63930;SDS011;50111;48.114;-2.066;2022-07-22T03:44:07;11.65;;;7.97;;
63930;SDS011;50111;48.114;-2.066;2022-07-22T03:46:33;12.15;;;7.90;;
63930;SDS011;50111;48.114;-2.066;2022-07-22T03:48:59;11.52;;;7.70;;
63930;SDS011;50111;48.114;-2.066;2022-07-22T03:51:25;11.50;;;7.30;;
63930;SDS011;50111;48.114;-2.066;2022-07-22T03:53:51;13.93;;;8.88;;
63930;SDS011;50111;48.114;-2.066;2022-07-22T03:56:17;13.13;;;9.00;;
63930;SDS011;50111;48.114;-2.066;2022-07-22T03:58:43;14.82;;;9.35;;
63930;SDS011;50111;48.114;-2.066;2022-07-22T04:01:09;13.65;;;8.07;;
63930;SDS011;50111;48.114;-2.066;2022-07-22T04:03:35;16.58;;;9.82;;
63930;SDS011;50111;48.114;-2.066;2022-07-22T04:06:01;14.38;;;8.75;;
63930;SDS011;50111;48.114;-2.066;2022-07-22T04:08:27;11.05;;;7.85;;
63930;SDS011;50111;48.114;-2.066;2022-07-22T04:10:53;13.43;;;8.32;;
63930;SDS011;50111;48.114;-2.066;2022-07-22T04:13:19;11.98;;;8.20;;
63930;SDS011;50111;48.114;-2.066;2022-07-22T04:15:45;15.68;;;9.05;;
63930;SDS011;50111;48.114;-2.066;2022-07-22T04:18:11;14.63;;;9.20;;
63930;SDS011;50111;48.114;-2.066;2022-07-22T04:20:37;14.38;;;8.63;;
63930;SDS011;50111;48.114;-2.066;2022-07-22T04:23:03;15.27;;;9.20;;
63930;SDS011;50111;48.114;-2.066;2022-07-22T04:25:30;13.20;;;8.85;;
63930;SDS011;50111;48.114;-2.066;2022-07-22T04:27:56;14.60;;;8.30;;
63930;SDS011;50111;48.114;-2.066;2022-07-22T04:30:22;15.85;;;10.18;;
63930;SDS011;50111;48.114;-2.066;2022-07-22T04:32:48;16.05;;;10.60;;
63930;SDS011;50111;48.114;-2.066;2022-07-22T04:35:14;16.30;;;10.52;;
63930;SDS011;50111;48.114;-2.066;2022-07-22T04:37:40;18.90;;;11.40;;
63930;SDS011;50111;48.114;-2.066;2022-07-22T04:40:06;18.50;;;10.68;;
63930;SDS011;50111;48.114;-2.066;2022-07-22T04:42:32;19.05;;;12.02;;
63930;SDS011;50111;48.114;-2.066;2022-07-22T04:44:58;21.38;;;12.38;;
63930;SDS011;50111;48.114;-2.066;2022-07-22T04:47:24;21.85;;;11.98;;
63930;SDS011;50111;48.114;-2.066;2022-07-22T04:49:50;21.25;;;12.80;;
63930;SDS011;50111;48.114;-2.066;2022-07-22T04:52:16;21.88;;;11.43;;
63930;SDS011;50111;48.114;-2.066;2022-07-22T04:54:42;23.55;;;13.45;;
63930;SDS011;50111;48.114;-2.066;2022-07-22T04:57:08;27.38;;;14.43;;
63930;SDS011;50111;48.114;-2.066;2022-07-22T04:59:34;23.42;;;12.80;;
63930;SDS011;50111;48.114;-2.066;2022-07-22T05:02:00;23.50;;;14.10;;
63930;SDS011;50111;48.114;-2.066;2022-07-22T05:04:26;24.88;;;13.13;;
63930;SDS011;50111;48.114;-2.066;2022-07-22T05:06:52;26.05;;;14.10;;
63930;SDS011;50111;48.114;-2.066;2022-07-22T05:09:18;23.23;;;13.05;;
63930;SDS011;50111;48.114;-2.066;2022-07-22T05:11:44;24.50;;;13.70;;
63930;SDS011;50111;48.114;-2.066;2022-07-22T05:14:10;22.40;;;13.13;;
63930;SDS011;50111;48.114;-2.066;2022-07-22T05:16:36;23.00;;;11.43;;
63930;SDS011;50111;48.114;-2.066;2022-07-22T05:19:03;20.20;;;12.02;;
63930;SDS011;50111;48.114;-2.066;2022-07-22T05:21:29;24.08;;;14.05;;
63930;SDS011;50111;48.114;-2.066;2022-07-22T05:23:55;24.38;;;13.57;;
63930;SDS011;50111;48.114;-2.066;2022-07-22T05:26:21;20.23;;;12.68;;
63930;SDS011;50111;48.114;-2.066;2022-07-22T05:28:48;22.02;;;14.05;;
63930;SDS011;50111;48.114;-2.066;2022-07-22T05:31:14;18.20;;;12.15;;
63930;SDS011;50111;48.114;-2.066;2022-07-22T05:33:40;21.42;;;11.98;;
63930;SDS011;50111;48.114;-2.066;2022-07-22T05:36:06;21.70;;;12.35;;
63930;SDS011;50111;48.114;-2.066;2022-07-22T05:38:34;24.13;;;13.20;;
63930;SDS011;50111;48.114;-2.066;2022-07-22T05:41:00;19.02;;;11.25;;
63930;SDS011;50111;48.114;-2.066;2022-07-22T05:43:27;21.00;;;13.25;;
63930;SDS011;50111;48.114;-2.066;2022-07-22T05:45:53;21.85;;;13.07;;
63930;SDS011;50111;48.114;-2.066;2022-07-22T05:48:22;24.15;;;11.50;;
63930;SDS011;50111;48.114;-2.066;2022-07-22T05:50:48;26.92;;;11.48;;
63930;SDS011;50111;48.114;-2.066;2022-07-22T05:53:14;18.83;;;11.52;;
63930;SDS011;50111;48.114;-2.066;2022-07-22T05:55:40;19.77;;;11.48;;
63930;SDS011;50111;48.114;-2.066;2022-07-22T05:58:06;15.15;;;10.95;;
63930;SDS011;50111;48.114;-2.066;2022-07-22T06:00:32;23.05;;;12.10;;
63930;SDS011;50111;48.114;-2.066;2022-07-22T06:02:58;21.77;;;11.95;;
63930;SDS011;50111;48.114;-2.066;2022-07-22T06:05:24;19.65;;;11.90;;
63930;SDS011;50111;48.114;-2.066;2022-07-22T06:07:50;22.83;;;13.73;;
63930;SDS011;50111;48.114;-2.066;2022-07-22T06:10:16;19.70;;;12.18;;
63930;SDS011;50111;48.114;-2.066;2022-07-22T06:12:42;17.67;;;12.25;;
63930;SDS011;50111;48.114;-2.066;2022-07-22T06:15:08;21.70;;;14.15;;
63930;SDS011;50111;48.114;-2.066;2022-07-22T06:17:34;18.27;;;12.32;;
63930;SDS011;50111;48.114;-2.066;2022-07-22T06:20:00;23.10;;;13.00;;
63930;SDS011;50111;48.114;-2.066;2022-07-22T06:22:26;20.95;;;13.07;;
63930;SDS011;50111;48.114;-2.066;2022-07-22T06:24:52;17.40;;;11.68;;
63930;SDS011;50111;48.114;-2.066;2022-07-22T06:27:19;20.55;;;11.98;;
63930;SDS011;50111;48.114;-2.066;2022-07-22T06:29:45;23.00;;;12.50;;
63930;SDS011;50111;48.114;-2.066;2022-07-22T06:32:11;23.15;;;11.88;;
63930;SDS011;50111;48.114;-2.066;2022-07-22T06:34:37;21.17;;;11.05;;
63930;SDS011;50111;48.114;-2.066;2022-07-22T06:37:03;17.30;;;11.00;;
63930;SDS011;50111;48.114;-2.066;2022-07-22T06:39:29;18.85;;;12.30;;
63930;SDS011;50111;48.114;-2.066;2022-07-22T06:41:55;17.63;;;12.43;;
63930;SDS011;50111;48.114;-2.066;2022-07-22T06:44:21;22.35;;;12.77;;
63930;SDS011;50111;48.114;-2.066;2022-07-22T06:46:47;18.02;;;11.02;;
63930;SDS011;50111;48.114;-2.066;2022-07-22T06:49:13;24.75;;;11.98;;
63930;SDS011;50111;48.114;-2.066;2022-07-22T06:51:39;21.13;;;12.20;;
63930;SDS011;50111;48.114;-2.066;2022-07-22T06:54:05;20.55;;;11.90;;
63930;SDS011;50111;48.114;-2.066;2022-07-22T06:56:31;25.20;;;13.55;;
63930;SDS011;50111;48.114;-2.066;2022-07-22T06:58:57;24.05;;;12.80;;
63930;SDS011;50111;48.114;-2.066;2022-07-22T07:01:23;20.48;;;12.70;;
63930;SDS011;50111;48.114;-2.066;2022-07-22T07:03:49;22.92;;;12.98;;
63930;SDS011;50111;48.114;-2.066;2022-07-22T07:06:15;23.50;;;12.93;;
63930;SDS011;50111;48.114;-2.066;2022-07-22T07:08:41;22.42;;;13.43;;
63930;SDS011;50111;48.114;-2.066;2022-07-22T07:11:07;23.70;;;13.18;;
63930;SDS011;50111;48.114;-2.066;2022-07-22T07:13:33;24.67;;;14.52;;
63930;SDS011;50111;48.114;-2.066;2022-07-22T07:15:59;21.48;;;12.68;;
63930;SDS011;50111;48.114;-2.066;2022-07-22T07:18:25;22.13;;;13.43;;
63930;SDS011;50111;48.114;-2.066;2022-07-22T07:20:51;20.80;;;12.43;;
63930;SDS011;50111;48.114;-2.066;2022-07-22T07:23:17;22.33;;;13.38;;
63930;SDS011;50111;48.114;-2.066;2022-07-22T07:25:43;23.15;;;11.90;;
63930;SDS011;50111;48.114;-2.066;2022-07-22T07:28:09;25.40;;;12.93;;
63930;SDS011;50111;48.114;-2.066;2022-07-22T07:30:35;25.20;;;13.38;;
63930;SDS011;50111;48.114;-2.066;2022-07-22T07:33:01;21.58;;;12.95;;
63930;SDS011;50111;48.114;-2.066;2022-07-22T07:35:28;18.75;;;11.82;;
63930;SDS011;50111;48.114;-2.066;2022-07-22T07:37:54;20.27;;;12.48;;
63930;SDS011;50111;48.114;-2.066;2022-07-22T07:40:20;20.45;;;11.43;;
63930;SDS011;50111;48.114;-2.066;2022-07-22T07:42:46;22.05;;;13.38;;
63930;SDS011;50111;48.114;-2.066;2022-07-22T07:45:12;24.40;;;13.18;;
63930;SDS011;50111;48.114;-2.066;2022-07-22T07:47:38;19.67;;;13.23;;
63930;SDS011;50111;48.114;-2.066;2022-07-22T07:50:05;22.13;;;12.73;;
63930;SDS011;50111;48.114;-2.066;2022-07-22T07:52:36;21.83;;;12.10;;
63930;SDS011;50111;48.114;-2.066;2022-07-22T07:57:48;19.55;;;12.43;;
63930;SDS011;50111;48.114;-2.066;2022-07-22T08:00:14;25.55;;;13.18;;
63930;SDS011;50111;48.114;-2.066;2022-07-22T08:02:41;18.70;;;11.27;;
63930;SDS011;50111;48.114;-2.066;2022-07-22T08:05:08;18.80;;;12.05;;
63930;SDS011;50111;48.114;-2.066;2022-07-22T08:07:34;22.02;;;12.30;;
63930;SDS011;50111;48.114;-2.066;2022-07-22T08:10:01;21.38;;;13.05;;
63930;SDS011;50111;48.114;-2.066;2022-07-22T08:12:27;21.33;;;13.02;;
63930;SDS011;50111;48.114;-2.066;2022-07-22T08:14:53;23.02;;;13.23;;
63930;SDS011;50111;48.114;-2.066;2022-07-22T08:17:19;18.98;;;12.00;;
63930;SDS011;50111;48.114;-2.066;2022-07-22T08:19:45;19.85;;;12.45;;
63930;SDS011;50111;48.114;-2.066;2022-07-22T08:22:11;23.45;;;13.98;;
63930;SDS011;50111;48.114;-2.066;2022-07-22T08:24:37;20.45;;;11.75;;
63930;SDS011;50111;48.114;-2.066;2022-07-22T08:27:03;19.98;;;12.82;;
63930;SDS011;50111;48.114;-2.066;2022-07-22T08:29:29;18.58;;;12.27;;
63930;SDS011;50111;48.114;-2.066;2022-07-22T08:31:55;19.63;;;12.15;;
63930;SDS011;50111;48.114;-2.066;2022-07-22T08:34:21;20.67;;;10.18;;
63930;SDS011;50111;48.114;-2.066;2022-07-22T08:36:47;22.42;;;11.75;;
63930;SDS011;50111;48.114;-2.066;2022-07-22T08:39:13;17.42;;;11.07;;
63930;SDS011;50111;48.114;-2.066;2022-07-22T08:41:39;16.80;;;10.43;;
63930;SDS011;50111;48.114;-2.066;2022-07-22T08:44:06;19.00;;;11.27;;
63930;SDS011;50111;48.114;-2.066;2022-07-22T08:46:33;15.48;;;10.60;;
63930;SDS011;50111;48.114;-2.066;2022-07-22T08:48:59;17.35;;;11.07;;
63930;SDS011;50111;48.114;-2.066;2022-07-22T08:51:26;19.23;;;10.57;;
63930;SDS011;50111;48.114;-2.066;2022-07-22T08:53:52;15.70;;;9.48;;
63930;SDS011;50111;48.114;-2.066;2022-07-22T08:56:18;15.32;;;9.20;;
63930;SDS011;50111;48.114;-2.066;2022-07-22T08:58:44;15.48;;;9.75;;
63930;SDS011;50111;48.114;-2.066;2022-07-22T09:01:11;16.25;;;8.82;;
63930;SDS011;50111;48.114;-2.066;2022-07-22T09:03:45;14.25;;;9.73;;
63930;SDS011;50111;48.114;-2.066;2022-07-22T09:06:11;15.43;;;9.30;;
63930;SDS011;50111;48.114;-2.066;2022-07-22T09:08:54;16.58;;;9.65;;
63930;SDS011;50111;48.114;-2.066;2022-07-22T09:11:21;18.48;;;10.13;;
63930;SDS011;50111;48.114;-2.066;2022-07-22T09:13:48;14.95;;;9.52;;
63930;SDS011;50111;48.114;-2.066;2022-07-22T09:16:14;13.85;;;9.27;;
63930;SDS011;50111;48.114;-2.066;2022-07-22T09:18:47;15.73;;;9.98;;
63930;SDS011;50111;48.114;-2.066;2022-07-22T09:21:13;15.15;;;9.18;;
63930;SDS011;50111;48.114;-2.066;2022-07-22T09:23:40;16.15;;;10.77;;
63930;SDS011;50111;48.114;-2.066;2022-07-22T09:26:07;20.33;;;10.23;;
63930;SDS011;50111;48.114;-2.066;2022-07-22T09:28:33;14.73;;;9.27;;
63930;SDS011;50111;48.114;-2.066;2022-07-22T09:30:59;14.27;;;9.40;;
63930;SDS011;50111;48.114;-2.066;2022-07-22T09:33:25;17.15;;;9.02;;
63930;SDS011;50111;48.114;-2.066;2022-07-22T09:36:01;11.70;;;8.02;;
63930;SDS011;50111;48.114;-2.066;2022-07-22T09:38:28;15.48;;;8.63;;
63930;SDS011;50111;48.114;-2.066;2022-07-22T09:40:54;15.95;;;9.50;;
63930;SDS011;50111;48.114;-2.066;2022-07-22T09:43:21;12.90;;;7.85;;
63930;SDS011;50111;48.114;-2.066;2022-07-22T09:48:13;16.00;;;9.30;;
63930;SDS011;50111;48.114;-2.066;2022-07-22T09:50:39;14.98;;;8.75;;
63930;SDS011;50111;48.114;-2.066;2022-07-22T09:53:05;11.80;;;7.75;;
63930;SDS011;50111;48.114;-2.066;2022-07-22T09:55:31;16.17;;;7.78;;
63930;SDS011;50111;48.114;-2.066;2022-07-22T09:57:58;15.75;;;7.88;;
63930;SDS011;50111;48.114;-2.066;2022-07-22T10:00:26;12.65;;;7.75;;
63930;SDS011;50111;48.114;-2.066;2022-07-22T10:05:21;14.48;;;8.60;;
63930;SDS011;50111;48.114;-2.066;2022-07-22T10:07:47;10.55;;;7.28;;
63930;SDS011;50111;48.114;-2.066;2022-07-22T10:10:15;12.77;;;7.85;;
63930;SDS011;50111;48.114;-2.066;2022-07-22T10:12:41;16.85;;;8.50;;
63930;SDS011;50111;48.114;-2.066;2022-07-22T10:15:08;13.27;;;8.48;;
63930;SDS011;50111;48.114;-2.066;2022-07-22T10:17:38;14.68;;;8.60;;
63930;SDS011;50111;48.114;-2.066;2022-07-22T10:20:04;13.05;;;7.15;;
63930;SDS011;50111;48.114;-2.066;2022-07-22T10:22:44;13.40;;;7.05;;
63930;SDS011;50111;48.114;-2.066;2022-07-22T10:27:54;12.48;;;7.40;;
63930;SDS011;50111;48.114;-2.066;2022-07-22T10:30:21;11.43;;;7.95;;
63930;SDS011;50111;48.114;-2.066;2022-07-22T10:35:33;13.73;;;7.50;;
63930;SDS011;50111;48.114;-2.066;2022-07-22T10:38:01;16.38;;;7.50;;
63930;SDS011;50111;48.114;-2.066;2022-07-22T10:40:31;12.55;;;7.45;;
63930;SDS011;50111;48.114;-2.066;2022-07-22T10:45:24;10.02;;;6.35;;
63930;SDS011;50111;48.114;-2.066;2022-07-22T10:48:00;15.10;;;6.90;;
63930;SDS011;50111;48.114;-2.066;2022-07-22T10:53:04;12.60;;;6.10;;
63930;SDS011;50111;48.114;-2.066;2022-07-22T10:55:31;10.93;;;6.22;;
63930;SDS011;50111;48.114;-2.066;2022-07-22T10:57:57;11.90;;;7.13;;
63930;SDS011;50111;48.114;-2.066;2022-07-22T11:00:24;10.65;;;6.43;;
63930;SDS011;50111;48.114;-2.066;2022-07-22T11:02:50;10.23;;;6.72;;
63930;SDS011;50111;48.114;-2.066;2022-07-22T11:05:26;9.75;;;6.85;;
63930;SDS011;50111;48.114;-2.066;2022-07-22T11:07:52;11.07;;;6.45;;
63930;SDS011;50111;48.114;-2.066;2022-07-22T11:10:19;8.77;;;6.40;;
63930;SDS011;50111;48.114;-2.066;2022-07-22T11:12:46;12.20;;;6.30;;
63930;SDS011;50111;48.114;-2.066;2022-07-22T11:15:12;11.52;;;6.85;;
63930;SDS011;50111;48.114;-2.066;2022-07-22T11:17:38;10.93;;;6.80;;
63930;SDS011;50111;48.114;-2.066;2022-07-22T11:20:06;11.68;;;6.90;;
63930;SDS011;50111;48.114;-2.066;2022-07-22T11:22:33;12.70;;;6.32;;
63930;SDS011;50111;48.114;-2.066;2022-07-22T11:25:03;10.20;;;6.05;;
63930;SDS011;50111;48.114;-2.066;2022-07-22T11:27:29;11.07;;;5.97;;
63930;SDS011;50111;48.114;-2.066;2022-07-22T11:29:55;11.40;;;5.65;;
63930;SDS011;50111;48.114;-2.066;2022-07-22T11:32:23;9.43;;;5.93;;
63930;SDS011;50111;48.114;-2.066;2022-07-22T11:34:49;10.43;;;6.35;;
63930;SDS011;50111;48.114;-2.066;2022-07-22T11:37:19;9.80;;;5.55;;
63930;SDS011;50111;48.114;-2.066;2022-07-22T11:39:47;11.88;;;6.45;;
63930;SDS011;50111;48.114;-2.066;2022-07-22T11:42:13;12.32;;;6.18;;
63930;SDS011;50111;48.114;-2.066;2022-07-22T11:44:40;11.63;;;6.00;;
63930;SDS011;50111;48.114;-2.066;2022-07-22T11:47:06;8.40;;;5.15;;
63930;SDS011;50111;48.114;-2.066;2022-07-22T11:49:33;9.90;;;5.43;;
63930;SDS011;50111;48.114;-2.066;2022-07-22T11:52:00;10.35;;;6.15;;
63930;SDS011;50111;48.114;-2.066;2022-07-22T11:54:26;8.43;;;4.70;;
63930;SDS011;50111;48.114;-2.066;2022-07-22T11:56:52;9.43;;;5.38;;
63930;SDS011;50111;48.114;-2.066;2022-07-22T11:59:19;11.05;;;5.03;;
63930;SDS011;50111;48.114;-2.066;2022-07-22T12:01:46;8.98;;;4.88;;
63930;SDS011;50111;48.114;-2.066;2022-07-22T12:04:15;9.43;;;4.75;;
63930;SDS011;50111;48.114;-2.066;2022-07-22T12:06:42;7.07;;;5.10;;
63930;SDS011;50111;48.114;-2.066;2022-07-22T12:09:09;10.10;;;4.75;;
63930;SDS011;50111;48.114;-2.066;2022-07-22T12:11:37;7.72;;;4.50;;
63930;SDS011;50111;48.114;-2.066;2022-07-22T12:14:08;6.80;;;4.13;;
63930;SDS011;50111;48.114;-2.066;2022-07-22T12:16:35;9.85;;;4.38;;
63930;SDS011;50111;48.114;-2.066;2022-07-22T12:21:32;6.45;;;3.80;;
63930;SDS011;50111;48.114;-2.066;2022-07-22T12:24:05;7.72;;;4.95;;
63930;SDS011;50111;48.114;-2.066;2022-07-22T12:31:42;7.25;;;3.72;;
63930;SDS011;50111;48.114;-2.066;2022-07-22T12:34:09;6.23;;;3.90;;
63930;SDS011;50111;48.114;-2.066;2022-07-22T12:36:35;7.72;;;3.78;;
63930;SDS011;50111;48.114;-2.066;2022-07-22T12:39:17;5.63;;;3.83;;
63930;SDS011;50111;48.114;-2.066;2022-07-22T12:41:45;6.88;;;3.85;;
63930;SDS011;50111;48.114;-2.066;2022-07-22T12:44:18;8.95;;;4.40;;
63930;SDS011;50111;48.114;-2.066;2022-07-22T12:46:45;7.63;;;4.03;;
63930;SDS011;50111;48.114;-2.066;2022-07-22T12:49:11;9.88;;;4.32;;
63930;SDS011;50111;48.114;-2.066;2022-07-22T12:51:37;8.45;;;3.67;;
63930;SDS011;50111;48.114;-2.066;2022-07-22T12:54:03;8.05;;;3.75;;
63930;SDS011;50111;48.114;-2.066;2022-07-22T12:56:29;6.32;;;3.42;;
63930;SDS011;50111;48.114;-2.066;2022-07-22T12:58:56;7.20;;;4.20;;
63930;SDS011;50111;48.114;-2.066;2022-07-22T13:01:22;7.50;;;3.67;;
63930;SDS011;50111;48.114;-2.066;2022-07-22T13:03:48;7.75;;;3.95;;
63930;SDS011;50111;48.114;-2.066;2022-07-22T13:06:14;7.55;;;4.10;;
63930;SDS011;50111;48.114;-2.066;2022-07-22T13:08:40;9.63;;;4.20;;
63930;SDS011;50111;48.114;-2.066;2022-07-22T13:11:06;7.65;;;4.35;;
63930;SDS011;50111;48.114;-2.066;2022-07-22T13:13:32;6.97;;;4.00;;
63930;SDS011;50111;48.114;-2.066;2022-07-22T13:15:58;8.48;;;4.25;;
63930;SDS011;50111;48.114;-2.066;2022-07-22T13:18:24;9.27;;;4.20;;
63930;SDS011;50111;48.114;-2.066;2022-07-22T13:20:50;8.13;;;3.90;;
63930;SDS011;50111;48.114;-2.066;2022-07-22T13:23:16;7.43;;;4.00;;
63930;SDS011;50111;48.114;-2.066;2022-07-22T13:25:43;10.05;;;4.20;;
63930;SDS011;50111;48.114;-2.066;2022-07-22T13:28:09;8.55;;;4.15;;
63930;SDS011;50111;48.114;-2.066;2022-07-22T13:30:35;9.98;;;3.80;;
63930;SDS011;50111;48.114;-2.066;2022-07-22T13:33:02;6.18;;;3.50;;
63930;SDS011;50111;48.114;-2.066;2022-07-22T13:35:28;10.35;;;3.92;;
63930;SDS011;50111;48.114;-2.066;2022-07-22T13:37:54;9.15;;;3.85;;
63930;SDS011;50111;48.114;-2.066;2022-07-22T13:40:20;8.50;;;4.00;;
63930;SDS011;50111;48.114;-2.066;2022-07-22T13:42:46;6.47;;;3.72;;
63930;SDS011;50111;48.114;-2.066;2022-07-22T13:45:12;10.05;;;3.72;;
63930;SDS011;50111;48.114;-2.066;2022-07-22T13:47:39;8.35;;;4.25;;
63930;SDS011;50111;48.114;-2.066;2022-07-22T13:50:06;7.70;;;3.50;;
63930;SDS011;50111;48.114;-2.066;2022-07-22T13:52:32;7.07;;;3.65;;
63930;SDS011;50111;48.114;-2.066;2022-07-22T13:54:59;11.60;;;3.95;;
63930;SDS011;50111;48.114;-2.066;2022-07-22T13:57:25;7.63;;;3.72;;
63930;SDS011;50111;48.114;-2.066;2022-07-22T13:59:51;16.10;;;4.43;;
63930;SDS011;50111;48.114;-2.066;2022-07-22T14:02:17;6.93;;;3.10;;
63930;SDS011;50111;48.114;-2.066;2022-07-22T14:04:43;6.18;;;3.65;;
63930;SDS011;50111;48.114;-2.066;2022-07-22T14:07:09;8.13;;;3.38;;
63930;SDS011;50111;48.114;-2.066;2022-07-22T14:09:35;9.07;;;3.75;;
63930;SDS011;50111;48.114;-2.066;2022-07-22T14:12:01;7.40;;;3.40;;
63930;SDS011;50111;48.114;-2.066;2022-07-22T14:14:27;7.55;;;3.42;;
63930;SDS011;50111;48.114;-2.066;2022-07-22T14:16:53;8.35;;;3.65;;
63930;SDS011;50111;48.114;-2.066;2022-07-22T14:19:19;8.93;;;3.45;;
63930;SDS011;50111;48.114;-2.066;2022-07-22T14:21:46;7.55;;;3.53;;
63930;SDS011;50111;48.114;-2.066;2022-07-22T14:24:12;9.10;;;3.97;;
63930;SDS011;50111;48.114;-2.066;2022-07-22T14:26:39;8.63;;;3.70;;
63930;SDS011;50111;48.114;-2.066;2022-07-22T14:29:07;7.75;;;3.40;;
63930;SDS011;50111;48.114;-2.066;2022-07-22T14:31:33;7.38;;;3.53;;
63930;SDS011;50111;48.114;-2.066;2022-07-22T14:33:59;8.63;;;3.55;;
63930;SDS011;50111;48.114;-2.066;2022-07-22T14:36:25;9.48;;;3.58;;
63930;SDS011;50111;48.114;-2.066;2022-07-22T14:38:51;6.28;;;3.35;;
63930;SDS011;50111;48.114;-2.066;2022-07-22T14:41:18;8.60;;;3.70;;
63930;SDS011;50111;48.114;-2.066;2022-07-22T14:43:45;6.63;;;3.63;;